createdAt,value
2023-04-26T00:01:14.970Z,4.90
2023-04-26T00:11:15.619Z,5.50
2023-04-26T00:21:16.349Z,5.80
2023-04-26T00:31:17.120Z,6.00
2023-04-26T00:41:17.894Z,5.80
2023-04-26T00:51:18.914Z,6.20
2023-04-26T01:01:19.242Z,5.70
2023-04-26T01:11:19.893Z,6.70
2023-04-26T01:21:20.560Z,6.00
2023-04-26T01:41:21.859Z,6.40
2023-04-26T01:51:22.530Z,7.20
2023-04-26T02:01:23.625Z,5.40
2023-04-26T02:11:23.775Z,6.70
2023-04-26T02:21:24.371Z,5.70
2023-04-26T02:31:25.340Z,5.80
2023-04-26T02:41:25.604Z,6.00
2023-04-26T02:51:26.338Z,6.10
2023-04-26T03:11:27.668Z,5.90
2023-04-26T03:21:27.837Z,6.10
2023-04-26T03:31:28.724Z,5.40
2023-04-26T03:41:29.525Z,6.20
2023-04-26T03:51:29.549Z,5.70
2023-04-26T04:01:30.354Z,5.90
2023-04-26T04:11:30.585Z,6.60
2023-04-26T04:21:31.109Z,5.40
2023-04-26T04:31:31.698Z,6.50
2023-04-26T04:41:32.170Z,5.50
2023-04-26T04:51:32.758Z,7.80
2023-04-26T05:01:33.369Z,6.50
2023-04-26T05:11:33.923Z,5.80
2023-04-26T05:21:34.812Z,6.60
2023-04-26T05:31:35.348Z,6.30
2023-04-26T05:41:36.411Z,5.70
2023-04-26T05:51:37.216Z,5.40
2023-04-26T06:01:38.304Z,4.90
2023-04-26T06:11:39.481Z,6.60
2023-04-26T06:21:40.721Z,5.50
2023-04-26T06:31:41.916Z,4.90
2023-04-26T06:41:42.937Z,6.10
2023-04-26T06:51:44.080Z,6.70
2023-04-26T07:01:45.029Z,5.60
2023-04-26T07:11:45.909Z,5.70
2023-04-26T07:21:47.342Z,8.90
2023-04-26T07:31:48.411Z,6.90
2023-04-26T07:41:49.467Z,6.70
2023-04-26T07:51:50.500Z,7.10
2023-04-26T08:01:51.752Z,5.10
2023-04-26T08:11:53.388Z,6.60
2023-04-26T08:21:54.869Z,5.40
2023-04-26T08:31:56.374Z,5.60
2023-04-26T08:41:57.550Z,5.30
2023-04-26T08:51:58.784Z,5.60
2023-04-26T09:02:00.189Z,5.80
2023-04-26T09:12:01.424Z,6.00
2023-04-26T09:22:02.685Z,5.50
2023-04-26T09:32:03.715Z,5.20
2023-04-26T09:42:04.952Z,5.00
2023-04-26T09:52:06.267Z,7.30
2023-04-26T10:02:07.854Z,5.40
2023-04-26T10:12:08.683Z,5.20
2023-04-26T10:22:10.362Z,4.70
2023-04-26T10:32:11.032Z,6.50
2023-04-26T10:42:12.255Z,5.80
2023-04-26T10:52:13.506Z,4.70
2023-04-26T11:02:14.721Z,5.20
2023-04-26T11:12:16.118Z,4.80
2023-04-26T11:22:16.767Z,3.80
2023-04-26T11:32:17.730Z,5.40
2023-04-26T11:42:18.785Z,4.60
2023-04-26T11:52:20.041Z,4.30
2023-04-26T12:02:20.976Z,4.20
2023-04-26T12:12:21.887Z,5.20
2023-04-26T12:22:23.041Z,4.40
2023-04-26T12:42:24.878Z,5.50
2023-04-26T12:52:25.865Z,4.20
2023-04-26T13:12:28.063Z,3.10
2023-04-26T13:22:28.802Z,4.70
2023-04-26T13:32:29.841Z,5.90
2023-04-26T13:42:30.789Z,6.10
2023-04-26T13:52:31.985Z,4.30
2023-04-26T14:02:33.004Z,4.20
2023-04-26T14:12:33.746Z,3.80
2023-04-26T14:22:34.697Z,4.40
2023-04-26T14:32:35.890Z,4.80
2023-04-26T14:42:36.785Z,4.40
2023-04-26T14:52:37.387Z,3.50
2023-04-26T15:02:38.434Z,4.30
2023-04-26T15:22:40.338Z,4.20
2023-04-26T15:32:40.924Z,4.50
2023-04-26T15:42:41.672Z,3.90
2023-04-26T15:52:42.505Z,5.30
2023-04-26T16:02:43.505Z,4.40
2023-04-26T16:12:44.169Z,4.80
2023-04-26T16:22:45.408Z,4.20
2023-04-26T16:42:46.750Z,3.20
2023-04-26T16:52:47.546Z,3.40
2023-04-26T17:02:48.767Z,4.30
2023-04-26T17:12:49.267Z,3.40
2023-04-26T17:22:50.110Z,4.10
2023-04-26T17:32:50.860Z,4.60
2023-04-26T17:42:51.769Z,3.40
2023-04-26T17:52:52.385Z,3.80
2023-04-26T18:02:53.537Z,4.90
2023-04-26T18:12:54.270Z,4.80
2023-04-26T18:22:54.921Z,4.10
2023-04-26T18:32:55.932Z,3.70
2023-04-26T19:02:58.498Z,3.90
2023-04-26T19:12:58.911Z,4.70
2023-04-26T19:22:59.795Z,4.60
2023-04-26T19:33:00.419Z,5.40
2023-04-26T19:43:01.258Z,6.40
2023-04-26T19:53:01.821Z,4.60
2023-04-26T20:03:02.731Z,5.80
2023-04-26T20:13:03.761Z,5.30
2023-04-26T20:23:04.116Z,5.20
2023-04-26T20:33:04.752Z,4.70
2023-04-26T20:43:05.144Z,4.80
2023-04-26T20:53:05.855Z,5.00
2023-04-26T21:03:06.513Z,6.60
2023-04-26T21:13:06.862Z,5.20
2023-04-26T21:23:07.393Z,5.00
2023-04-26T21:33:08.016Z,6.10
2023-04-26T21:43:08.493Z,5.60
2023-04-26T21:53:08.983Z,4.90
2023-04-26T22:03:09.609Z,5.60
2023-04-26T22:13:09.954Z,6.20
2023-04-26T22:23:10.562Z,5.90
2023-04-26T22:33:10.987Z,6.20
2023-04-26T22:43:11.260Z,5.40
2023-04-26T22:53:12.118Z,6.20
2023-04-26T23:03:12.191Z,7.40
2023-04-26T23:13:12.722Z,5.70
2023-04-26T23:23:13.006Z,5.80
2023-04-26T23:33:13.538Z,7.10
2023-04-26T23:43:13.878Z,9.20
2023-04-26T23:53:14.148Z,8.20
